createdAt,value
2023-04-09T00:00:28.921Z,8.20
2023-04-09T00:01:28.919Z,8.19
2023-04-09T00:02:28.961Z,8.16
2023-04-09T00:03:28.964Z,8.16
2023-04-09T00:04:28.926Z,8.16
2023-04-09T00:05:28.858Z,8.16
2023-04-09T00:06:28.859Z,8.15
2023-04-09T00:07:28.827Z,8.16
2023-04-09T00:08:28.828Z,8.16
2023-04-09T00:09:28.795Z,8.15
2023-04-09T00:10:28.795Z,8.16
2023-04-09T00:11:28.794Z,8.18
2023-04-09T00:12:28.779Z,8.16
2023-04-09T00:14:28.754Z,8.18
2023-04-09T00:15:31.611Z,8.18
2023-04-09T00:16:28.767Z,8.18
2023-04-09T00:17:28.751Z,8.18
2023-04-09T00:18:28.698Z,8.18
2023-04-09T00:19:28.696Z,8.16
2023-04-09T00:20:28.699Z,8.15
2023-04-09T00:21:28.696Z,8.16
2023-04-09T00:22:28.671Z,8.12
2023-04-09T00:23:28.693Z,8.11
2023-04-09T00:24:28.644Z,8.11
2023-04-09T00:25:29.443Z,8.11
2023-04-09T00:26:28.643Z,8.08
2023-04-09T00:27:28.919Z,8.08
2023-04-09T00:28:28.691Z,8.08
2023-04-09T00:29:28.605Z,8.07
2023-04-09T00:30:28.646Z,8.07
2023-04-09T00:31:28.630Z,8.05
2023-04-09T00:32:28.635Z,8.04
2023-04-09T00:33:28.831Z,8.07
2023-04-09T00:34:28.599Z,8.05
2023-04-09T00:35:28.603Z,8.05
2023-04-09T00:36:28.597Z,8.07
2023-04-09T00:37:28.525Z,8.08
2023-04-09T00:38:28.577Z,8.07
2023-04-09T00:39:28.528Z,8.08
2023-04-09T00:40:29.553Z,8.07
2023-04-09T00:41:28.453Z,8.08
2023-04-09T00:42:28.445Z,8.07
2023-04-09T00:43:28.439Z,8.07
2023-04-09T00:44:28.433Z,8.05
2023-04-09T00:45:28.610Z,8.05
2023-04-09T00:46:28.420Z,8.04
2023-04-09T00:47:28.404Z,8.04
2023-04-09T00:48:28.379Z,8.04
2023-04-09T00:49:28.380Z,8.05
2023-04-09T00:50:28.350Z,8.02
2023-04-09T00:51:28.370Z,8.02
2023-04-09T00:52:28.310Z,8.01
2023-04-09T00:53:28.319Z,7.98
2023-04-09T00:54:28.307Z,7.95
2023-04-09T00:55:28.291Z,7.95
2023-04-09T00:56:28.301Z,7.97
2023-04-09T00:57:28.273Z,7.97
2023-04-09T00:58:28.255Z,7.97
2023-04-09T00:59:28.253Z,7.98
2023-04-09T01:00:28.236Z,8.01
2023-04-09T01:01:28.332Z,8.02
2023-04-09T01:02:28.360Z,8.01
2023-04-09T01:03:28.249Z,8.01
2023-04-09T01:04:28.170Z,8.01
2023-04-09T01:05:28.207Z,8.00
2023-04-09T01:06:28.165Z,8.00
2023-04-09T01:07:28.162Z,8.04
2023-04-09T01:08:28.151Z,8.04
2023-04-09T01:09:28.142Z,8.00
2023-04-09T01:10:28.142Z,7.98
2023-04-09T01:11:28.117Z,7.98
2023-04-09T01:12:28.102Z,7.97
2023-04-09T01:13:28.137Z,8.00
2023-04-09T01:14:28.073Z,8.01
2023-04-09T01:15:28.065Z,8.02
2023-04-09T01:16:28.120Z,8.04
2023-04-09T01:17:28.072Z,8.04
2023-04-09T01:18:28.062Z,8.04
2023-04-09T01:19:28.012Z,8.05
2023-04-09T01:20:28.029Z,8.05
2023-04-09T01:21:28.013Z,8.07
2023-04-09T01:22:28.015Z,8.07
2023-04-09T01:23:27.967Z,8.07
2023-04-09T01:24:35.500Z,8.07
2023-04-09T01:25:36.271Z,8.10
2023-04-09T01:26:35.458Z,8.10
2023-04-09T01:27:35.959Z,8.08
2023-04-09T01:28:35.918Z,8.07
2023-04-09T01:29:27.882Z,8.08
2023-04-09T01:30:34.949Z,8.08
2023-04-09T01:31:27.902Z,8.08
2023-04-09T01:32:27.921Z,8.05
2023-04-09T01:33:27.851Z,8.04
2023-04-09T01:34:27.850Z,8.02
2023-04-09T01:35:28.091Z,8.01
2023-04-09T01:36:27.864Z,8.00
2023-04-09T01:37:27.826Z,8.01
2023-04-09T01:38:27.804Z,8.00
2023-04-09T01:39:27.795Z,8.00
2023-04-09T01:40:27.836Z,7.98
2023-04-09T01:41:28.055Z,8.00
2023-04-09T01:42:27.756Z,8.00
2023-04-09T01:43:27.734Z,7.98
2023-04-09T01:44:27.746Z,8.01
2023-04-09T01:45:27.760Z,8.02
2023-04-09T01:46:27.809Z,8.04
2023-04-09T01:47:27.735Z,8.01
2023-04-09T01:48:27.687Z,8.01
2023-04-09T01:49:27.670Z,8.01
2023-04-09T01:50:27.680Z,8.02
2023-04-09T01:51:27.678Z,8.00
2023-04-09T01:52:27.660Z,7.98
2023-04-09T01:53:27.617Z,7.98
2023-04-09T01:54:27.617Z,7.97
2023-04-09T01:55:27.596Z,7.93
2023-04-09T01:56:27.633Z,7.92
2023-04-09T01:57:27.594Z,7.89
2023-04-09T01:58:27.563Z,7.86
2023-04-09T01:59:27.574Z,7.82
2023-04-09T02:00:27.546Z,7.82
2023-04-09T02:01:27.583Z,7.82
2023-04-09T02:02:30.359Z,7.80
2023-04-09T02:03:27.621Z,7.77
2023-04-09T02:04:27.520Z,7.74
2023-04-09T02:05:27.495Z,7.72
2023-04-09T02:06:27.505Z,7.72
2023-04-09T02:07:27.524Z,7.74
2023-04-09T02:08:27.470Z,7.75
2023-04-09T02:09:27.442Z,7.72
2023-04-09T02:10:27.442Z,7.72
2023-04-09T02:11:27.422Z,7.71
2023-04-09T02:12:27.423Z,7.67
2023-04-09T02:13:27.393Z,7.63
2023-04-09T02:14:27.377Z,7.64
2023-04-09T02:15:27.374Z,7.61
2023-04-09T02:16:27.410Z,7.60
2023-04-09T02:17:27.395Z,7.58
2023-04-09T02:18:27.379Z,7.60
2023-04-09T02:19:27.318Z,7.57
2023-04-09T02:20:27.309Z,7.52
2023-04-09T02:21:30.126Z,7.48
2023-04-09T02:22:27.284Z,7.48
2023-04-09T02:23:27.299Z,7.45
2023-04-09T02:24:27.269Z,7.42
2023-04-09T02:25:27.286Z,7.39
2023-04-09T02:26:27.268Z,7.35
2023-04-09T02:27:27.226Z,7.34
2023-04-09T02:28:27.231Z,7.31
2023-04-09T02:29:27.240Z,7.32
2023-04-09T02:30:27.207Z,7.32
2023-04-09T02:31:27.260Z,7.31
2023-04-09T02:32:27.206Z,7.27
2023-04-09T02:33:27.158Z,7.25
2023-04-09T02:34:27.168Z,7.27
2023-04-09T02:35:27.166Z,7.24
2023-04-09T02:36:27.145Z,7.25
2023-04-09T02:37:27.118Z,7.24
2023-04-09T02:38:27.104Z,7.24
2023-04-09T02:39:27.115Z,7.21
2023-04-09T02:40:27.116Z,7.21
2023-04-09T02:41:27.111Z,7.25
2023-04-09T02:42:27.066Z,7.28
2023-04-09T02:43:27.047Z,7.27
2023-04-09T02:44:27.032Z,7.24
2023-04-09T02:45:27.044Z,7.23
2023-04-09T02:46:27.038Z,7.23
2023-04-09T02:47:27.033Z,7.23
2023-04-09T02:48:26.987Z,7.23
2023-04-09T02:49:27.026Z,7.23
2023-04-09T02:50:27.886Z,7.21
2023-04-09T02:51:26.978Z,7.20
2023-04-09T02:52:26.959Z,7.20
2023-04-09T02:53:26.950Z,7.20
2023-04-09T02:54:26.934Z,7.20
2023-04-09T02:55:26.911Z,7.17
2023-04-09T02:56:26.913Z,7.16
2023-04-09T02:57:26.878Z,7.15
2023-04-09T02:58:26.904Z,7.12
2023-04-09T02:59:27.963Z,7.10
2023-04-09T03:00:26.871Z,7.09
2023-04-09T03:01:26.881Z,7.10
2023-04-09T03:02:27.105Z,7.12
2023-04-09T03:03:26.937Z,7.13
2023-04-09T03:04:26.845Z,7.12
2023-04-09T03:05:26.799Z,7.12
2023-04-09T03:06:26.808Z,7.09
2023-04-09T03:07:26.783Z,7.10
2023-04-09T03:08:33.790Z,7.09
2023-04-09T03:09:34.277Z,7.09
2023-04-09T03:10:34.768Z,7.09
2023-04-09T03:11:33.755Z,7.09
2023-04-09T03:12:34.741Z,7.09
2023-04-09T03:13:26.696Z,7.07
2023-04-09T03:14:26.708Z,7.07
2023-04-09T03:15:27.004Z,7.06
2023-04-09T03:16:26.746Z,7.05
2023-04-09T03:17:26.676Z,7.06
2023-04-09T03:18:26.664Z,7.07
2023-04-09T03:19:26.644Z,7.06
2023-04-09T03:20:26.651Z,7.06
2023-04-09T03:21:26.626Z,7.05
2023-04-09T03:22:26.621Z,7.03
2023-04-09T03:23:26.592Z,7.03
2023-04-09T03:24:26.596Z,7.02
2023-04-09T03:25:26.582Z,7.03
2023-04-09T03:26:26.594Z,6.98
2023-04-09T03:27:26.556Z,7.02
2023-04-09T03:28:26.548Z,6.98
2023-04-09T03:29:26.601Z,6.97
2023-04-09T03:30:29.265Z,6.95
2023-04-09T03:31:26.535Z,6.94
2023-04-09T03:32:26.584Z,6.92
2023-04-09T03:33:26.484Z,6.89
2023-04-09T03:34:26.478Z,6.89
2023-04-09T03:35:26.505Z,6.89
2023-04-09T03:36:26.784Z,6.87
2023-04-09T03:37:26.487Z,6.88
2023-04-09T03:38:26.423Z,6.87
2023-04-09T03:39:26.428Z,6.85
2023-04-09T03:40:26.859Z,6.80
2023-04-09T03:41:26.397Z,6.81
2023-04-09T03:42:26.376Z,6.77
2023-04-09T03:43:26.357Z,6.77
2023-04-09T03:44:26.357Z,6.77
2023-04-09T03:45:26.401Z,6.77
2023-04-09T03:46:26.361Z,6.77
2023-04-09T03:47:26.340Z,6.76
2023-04-09T03:48:26.294Z,6.73
2023-04-09T03:49:26.323Z,6.73
2023-04-09T03:50:26.376Z,6.69
2023-04-09T03:51:26.288Z,6.69
2023-04-09T03:52:26.259Z,6.71
2023-04-09T03:53:26.256Z,6.73
2023-04-09T03:54:26.223Z,6.73
2023-04-09T03:55:26.229Z,6.71
2023-04-09T03:56:26.242Z,6.70
2023-04-09T03:57:26.216Z,6.69
2023-04-09T03:58:26.216Z,6.70
2023-04-09T03:59:26.250Z,6.70
2023-04-09T04:00:29.026Z,6.73
2023-04-09T04:01:26.186Z,6.74
2023-04-09T04:02:26.164Z,6.76
2023-04-09T04:03:26.212Z,6.76
2023-04-09T04:04:26.197Z,6.76
2023-04-09T04:05:26.113Z,6.77
2023-04-09T04:06:26.115Z,6.77
2023-04-09T04:07:26.085Z,6.79
2023-04-09T04:08:26.391Z,6.81
2023-04-09T04:09:26.898Z,6.85
2023-04-09T04:10:26.174Z,6.84
2023-04-09T04:11:26.050Z,6.87
2023-04-09T04:12:26.019Z,6.85
2023-04-09T04:13:26.039Z,6.87
2023-04-09T04:14:26.014Z,6.88
2023-04-09T04:15:26.003Z,6.88
2023-04-09T04:16:26.033Z,6.89
2023-04-09T04:17:25.976Z,6.89
2023-04-09T04:18:25.952Z,6.89
2023-04-09T04:19:25.941Z,6.89
2023-04-09T04:20:26.218Z,6.91
2023-04-09T04:21:25.931Z,6.92
2023-04-09T04:22:26.436Z,6.92
2023-04-09T04:23:25.887Z,6.94
2023-04-09T04:24:25.892Z,6.95
2023-04-09T04:25:25.896Z,6.94
2023-04-09T04:26:25.865Z,6.95
2023-04-09T04:27:25.845Z,6.95
2023-04-09T04:28:25.846Z,6.94
2023-04-09T04:29:25.838Z,6.94
2023-04-09T04:30:25.830Z,6.92
2023-04-09T04:31:25.837Z,6.97
2023-04-09T04:32:25.806Z,6.95
2023-04-09T04:33:25.764Z,6.94
2023-04-09T04:34:25.774Z,6.91
2023-04-09T04:35:25.805Z,6.91
2023-04-09T04:36:25.749Z,6.91
2023-04-09T04:37:25.734Z,6.91
2023-04-09T04:38:25.727Z,6.88
2023-04-09T04:39:25.702Z,6.87
2023-04-09T04:40:25.746Z,6.87
2023-04-09T04:41:25.697Z,6.85
2023-04-09T04:42:25.700Z,6.85
2023-04-09T04:43:25.654Z,6.84
2023-04-09T04:44:25.641Z,6.84
2023-04-09T04:45:26.039Z,6.84
2023-04-09T04:46:25.653Z,6.81
2023-04-09T04:47:25.694Z,6.81
2023-04-09T04:48:25.602Z,6.81
2023-04-09T04:49:32.621Z,6.80
2023-04-09T04:50:33.421Z,6.80
2023-04-09T04:51:33.608Z,6.79
2023-04-09T04:52:32.566Z,6.76
2023-04-09T04:53:32.546Z,6.77
2023-04-09T04:54:33.857Z,6.77
2023-04-09T04:55:25.806Z,6.79
2023-04-09T04:56:25.494Z,6.80
2023-04-09T04:57:25.520Z,6.80
2023-04-09T04:58:25.500Z,6.81
2023-04-09T04:59:25.488Z,6.80
2023-04-09T05:00:25.486Z,6.80
2023-04-09T05:01:25.491Z,6.81
2023-04-09T05:02:25.562Z,6.80
2023-04-09T05:03:27.482Z,6.80
2023-04-09T05:04:25.422Z,6.80
2023-04-09T05:05:25.426Z,6.79
2023-04-09T05:06:25.403Z,6.77
2023-04-09T05:07:25.416Z,6.79
2023-04-09T05:08:25.382Z,6.80
2023-04-09T05:09:25.372Z,6.84
2023-04-09T05:10:28.091Z,6.85
2023-04-09T05:11:25.331Z,6.84
2023-04-09T05:12:25.338Z,6.85
2023-04-09T05:13:25.306Z,6.85
2023-04-09T05:14:25.294Z,6.88
2023-04-09T05:15:25.357Z,6.88
2023-04-09T05:16:25.291Z,6.87
2023-04-09T05:17:25.273Z,6.88
2023-04-09T05:18:25.255Z,6.87
2023-04-09T05:19:25.237Z,6.88
2023-04-09T05:20:25.274Z,6.89
2023-04-09T05:21:25.229Z,6.89
2023-04-09T05:22:25.210Z,6.91
2023-04-09T05:23:25.238Z,6.89
2023-04-09T05:24:25.206Z,6.91
2023-04-09T05:25:25.270Z,6.92
2023-04-09T05:26:25.160Z,6.92
2023-04-09T05:27:25.171Z,6.95
2023-04-09T05:28:25.153Z,6.98
2023-04-09T05:29:25.140Z,6.99
2023-04-09T05:30:25.371Z,7.02
2023-04-09T05:31:25.111Z,7.03
2023-04-09T05:32:25.114Z,7.05
2023-04-09T05:33:25.093Z,7.03
2023-04-09T05:34:25.069Z,7.03
2023-04-09T05:35:25.070Z,7.06
2023-04-09T05:36:25.075Z,7.07
2023-04-09T05:37:25.034Z,7.10
2023-04-09T05:38:25.008Z,7.12
2023-04-09T05:39:25.024Z,7.15
2023-04-09T05:40:27.816Z,7.15
2023-04-09T05:41:25.349Z,7.17
2023-04-09T05:42:24.977Z,7.17
2023-04-09T05:43:24.959Z,7.23
2023-04-09T05:44:25.004Z,7.25
2023-04-09T05:45:24.947Z,7.28
2023-04-09T05:46:24.970Z,7.31
2023-04-09T05:47:24.955Z,7.34
2023-04-09T05:48:24.922Z,7.34
2023-04-09T05:49:24.920Z,7.37
2023-04-09T05:50:24.908Z,7.42
2023-04-09T05:51:24.872Z,7.45
2023-04-09T05:52:24.873Z,7.46
2023-04-09T05:53:25.195Z,7.48
2023-04-09T05:54:24.853Z,7.50
2023-04-09T05:55:24.844Z,7.53
2023-04-09T05:56:24.816Z,7.57
2023-04-09T05:57:24.820Z,7.60
2023-04-09T05:58:24.805Z,7.61
2023-04-09T05:59:24.778Z,7.64
2023-04-09T06:00:24.801Z,7.69
2023-04-09T06:01:24.756Z,7.72
2023-04-09T06:02:24.972Z,7.74
2023-04-09T06:03:24.843Z,7.77
2023-04-09T06:04:24.943Z,7.75
2023-04-09T06:05:24.726Z,7.79
2023-04-09T06:06:24.762Z,7.82
2023-04-09T06:07:25.920Z,7.82
2023-04-09T06:08:24.690Z,7.83
2023-04-09T06:09:24.684Z,7.87
2023-04-09T06:10:24.722Z,7.89
2023-04-09T06:11:24.968Z,7.92
2023-04-09T06:12:24.633Z,7.95
2023-04-09T06:13:32.824Z,7.95
2023-04-09T06:14:25.504Z,7.98
2023-04-09T06:15:24.958Z,8.04
2023-04-09T06:16:24.600Z,8.08
2023-04-09T06:17:24.597Z,8.11
2023-04-09T06:18:24.576Z,8.15
2023-04-09T06:19:24.547Z,8.19
2023-04-09T06:20:24.595Z,8.22
2023-04-09T06:21:24.526Z,8.26
2023-04-09T06:22:24.525Z,8.29
2023-04-09T06:23:24.501Z,8.33
2023-04-09T06:24:24.484Z,8.37
2023-04-09T06:25:31.520Z,8.38
2023-04-09T06:26:31.528Z,8.40
2023-04-09T06:27:32.510Z,8.44
2023-04-09T06:28:31.802Z,8.45
2023-04-09T06:29:31.981Z,8.48
2023-04-09T06:30:32.456Z,8.53
2023-04-09T06:31:31.447Z,8.55
2023-04-09T06:32:37.661Z,8.59
2023-04-09T06:34:37.258Z,8.70
2023-04-09T06:35:44.553Z,8.73
2023-04-09T06:36:42.915Z,8.74
2023-04-09T06:37:43.429Z,8.74
2023-04-09T06:38:35.882Z,8.76
2023-04-09T06:39:36.535Z,8.79
2023-04-09T06:40:35.854Z,8.80
2023-04-09T06:41:36.111Z,8.81
2023-04-09T06:42:35.842Z,8.84
2023-04-09T06:43:35.819Z,8.87
2023-04-09T06:44:35.922Z,8.87
2023-04-09T06:45:35.834Z,8.92
2023-04-09T06:46:35.813Z,8.91
2023-04-09T06:47:35.813Z,8.94
2023-04-09T06:48:35.816Z,8.94
2023-04-09T06:49:35.795Z,8.96
2023-04-09T06:50:36.074Z,9.01
2023-04-09T06:51:35.735Z,9.08
2023-04-09T06:52:35.727Z,9.10
2023-04-09T06:53:35.793Z,9.13
2023-04-09T06:54:35.739Z,9.17
2023-04-09T06:55:35.697Z,9.23
2023-04-09T06:56:35.698Z,9.24
2023-04-09T06:57:35.696Z,9.29
2023-04-09T06:58:35.708Z,9.31
2023-04-09T06:59:35.674Z,9.32
2023-04-09T07:00:35.648Z,9.36
2023-04-09T07:01:35.829Z,9.40
2023-04-09T07:02:35.759Z,9.48
2023-04-09T07:03:35.714Z,9.56
2023-04-09T07:04:35.917Z,9.60
2023-04-09T07:05:35.620Z,9.68
2023-04-09T07:06:35.627Z,9.72
2023-04-09T07:07:35.570Z,9.79
2023-04-09T07:08:35.554Z,9.84
2023-04-09T07:09:35.553Z,9.87
2023-04-09T07:10:35.550Z,9.89
2023-04-09T07:11:35.514Z,9.90
2023-04-09T07:12:35.580Z,9.93
2023-04-09T07:13:35.493Z,9.94
2023-04-09T07:14:35.509Z,9.93
2023-04-09T07:15:35.565Z,9.89
2023-04-09T07:16:35.556Z,9.87
2023-04-09T07:17:38.448Z,9.86
2023-04-09T07:18:35.475Z,9.84
2023-04-09T07:19:35.480Z,9.84
2023-04-09T07:20:35.425Z,9.84
2023-04-09T07:21:35.433Z,9.84
2023-04-09T07:22:35.461Z,9.84
2023-04-09T07:23:35.674Z,9.86
2023-04-09T07:24:35.377Z,9.87
2023-04-09T07:25:35.349Z,9.86
2023-04-09T07:26:35.362Z,9.87
2023-04-09T07:27:35.904Z,9.87
2023-04-09T07:28:35.351Z,9.90
2023-04-09T07:29:35.304Z,9.93
2023-04-09T07:30:35.390Z,9.96
2023-04-09T07:31:36.086Z,9.97
2023-04-09T07:32:35.325Z,10.01
2023-04-09T07:33:35.297Z,10.07
2023-04-09T07:34:35.290Z,10.08
2023-04-09T07:35:35.265Z,10.14
2023-04-09T07:36:35.630Z,10.15
2023-04-09T07:37:36.080Z,10.18
2023-04-09T07:38:35.208Z,10.23
2023-04-09T07:39:35.522Z,10.25
2023-04-09T07:40:35.466Z,10.27
2023-04-09T07:41:35.213Z,10.32
2023-04-09T07:42:37.023Z,10.34
2023-04-09T07:43:35.200Z,10.40
2023-04-09T07:44:35.524Z,10.41
2023-04-09T07:45:35.194Z,10.44
2023-04-09T07:46:35.157Z,10.48
2023-04-09T07:47:35.117Z,10.52
2023-04-09T07:48:35.119Z,10.55
2023-04-09T07:49:35.108Z,10.56
2023-04-09T07:50:35.078Z,10.59
2023-04-09T07:51:35.148Z,10.63
2023-04-09T07:52:35.045Z,10.67
2023-04-09T07:53:35.039Z,10.71
2023-04-09T07:54:35.049Z,10.74
2023-04-09T07:55:35.393Z,10.81
2023-04-09T07:56:35.050Z,10.86
2023-04-09T07:57:36.811Z,10.88
2023-04-09T07:58:34.993Z,10.91
2023-04-09T07:59:34.994Z,10.92
2023-04-09T08:00:34.984Z,10.96
2023-04-09T08:01:34.989Z,10.96
2023-04-09T08:02:34.991Z,11.02
2023-04-09T08:03:35.158Z,11.03
2023-04-09T08:04:35.003Z,11.02
2023-04-09T08:05:34.924Z,11.03
2023-04-09T08:06:34.971Z,11.06
2023-04-09T08:07:34.896Z,11.09
2023-04-09T08:08:34.868Z,11.11
2023-04-09T08:09:34.885Z,11.15
2023-04-09T08:10:34.861Z,11.18
2023-04-09T08:11:34.817Z,11.19
2023-04-09T08:12:34.842Z,11.22
2023-04-09T08:13:34.800Z,11.22
2023-04-09T08:14:34.860Z,11.18
2023-04-09T08:15:42.806Z,11.21
2023-04-09T08:16:41.881Z,11.24
2023-04-09T08:17:41.859Z,11.24
2023-04-09T08:18:41.761Z,11.27
2023-04-09T08:19:34.739Z,11.27
2023-04-09T08:20:41.787Z,11.28
2023-04-09T08:21:42.769Z,11.32
2023-04-09T08:22:34.700Z,11.35
2023-04-09T08:23:34.691Z,11.35
2023-04-09T08:24:34.706Z,11.33
2023-04-09T08:25:34.673Z,11.39
2023-04-09T08:26:34.713Z,11.42
2023-04-09T08:27:35.031Z,11.42
2023-04-09T08:28:34.635Z,11.43
2023-04-09T08:29:34.646Z,11.39
2023-04-09T08:30:34.642Z,11.37
2023-04-09T08:31:34.659Z,11.36
2023-04-09T08:32:34.645Z,11.39
2023-04-09T08:33:34.600Z,11.39
2023-04-09T08:34:34.572Z,11.43
2023-04-09T08:35:34.656Z,11.47
2023-04-09T08:36:34.610Z,11.49
2023-04-09T08:37:34.546Z,11.52
2023-04-09T08:38:34.541Z,11.52
2023-04-09T08:39:34.536Z,11.55
2023-04-09T08:40:34.511Z,11.57
2023-04-09T08:41:34.571Z,11.52
2023-04-09T08:42:34.492Z,11.52
2023-04-09T08:43:52.502Z,11.52
2023-04-09T08:44:35.500Z,11.54
2023-04-09T08:45:34.468Z,11.55
2023-04-09T08:46:34.483Z,11.58
2023-04-09T08:47:34.556Z,11.64
2023-04-09T08:48:34.476Z,11.69
2023-04-09T08:49:34.477Z,11.75
2023-04-09T08:50:34.387Z,11.79
2023-04-09T08:51:34.393Z,11.88
2023-04-09T08:52:34.380Z,11.94
2023-04-09T08:53:34.491Z,11.98
2023-04-09T08:54:34.419Z,12.01
2023-04-09T08:55:34.326Z,11.98
2023-04-09T08:56:34.368Z,11.95
2023-04-09T08:57:34.334Z,11.96
2023-04-09T08:58:34.349Z,11.98
2023-04-09T08:59:34.317Z,12.02
2023-04-09T09:00:34.310Z,12.05
2023-04-09T09:01:34.432Z,12.07
2023-04-09T09:02:34.399Z,12.10
2023-04-09T09:03:34.274Z,12.13
2023-04-09T09:04:34.278Z,12.17
2023-04-09T09:05:34.221Z,12.16
2023-04-09T09:06:34.226Z,12.17
2023-04-09T09:07:34.239Z,12.23
2023-04-09T09:08:41.198Z,12.24
2023-04-09T09:09:34.190Z,12.28
2023-04-09T09:10:34.152Z,12.31
2023-04-09T09:11:34.149Z,12.29
2023-04-09T09:12:34.148Z,12.34
2023-04-09T09:13:34.121Z,12.39
2023-04-09T09:14:34.122Z,12.47
2023-04-09T09:15:34.094Z,12.52
2023-04-09T09:16:34.184Z,12.54
2023-04-09T09:17:34.217Z,12.57
2023-04-09T09:18:34.071Z,12.60
2023-04-09T09:19:34.176Z,12.64
2023-04-09T09:20:34.069Z,12.62
2023-04-09T09:21:34.037Z,12.65
2023-04-09T09:22:34.022Z,12.67
2023-04-09T09:23:34.016Z,12.67
2023-04-09T09:24:34.038Z,12.71
2023-04-09T09:25:34.015Z,12.75
2023-04-09T09:26:34.327Z,12.75
2023-04-09T09:27:33.982Z,12.85
2023-04-09T09:28:33.974Z,12.97
2023-04-09T09:29:33.979Z,13.08
2023-04-09T09:30:33.988Z,13.15
2023-04-09T09:31:33.994Z,13.19
2023-04-09T09:32:33.958Z,13.19
2023-04-09T09:33:33.922Z,13.12
2023-04-09T09:34:33.932Z,13.05
2023-04-09T09:35:33.910Z,13.01
2023-04-09T09:36:34.040Z,13.04
2023-04-09T09:37:33.883Z,13.11
2023-04-09T09:38:33.881Z,13.17
2023-04-09T09:39:33.856Z,13.22
2023-04-09T09:40:33.842Z,13.25
2023-04-09T09:41:33.829Z,13.23
2023-04-09T09:42:34.172Z,13.26
2023-04-09T09:43:33.807Z,13.32
2023-04-09T09:44:33.849Z,13.26
2023-04-09T09:45:33.790Z,13.28
2023-04-09T09:46:33.849Z,13.22
2023-04-09T09:47:33.822Z,13.26
2023-04-09T09:48:33.799Z,13.33
2023-04-09T09:49:33.759Z,13.41
2023-04-09T09:50:33.730Z,13.36
2023-04-09T09:51:33.717Z,13.32
2023-04-09T09:52:33.695Z,13.29
2023-04-09T09:53:33.733Z,13.32
2023-04-09T09:54:33.695Z,13.30
2023-04-09T09:55:33.669Z,13.32
2023-04-09T09:56:33.688Z,13.26
2023-04-09T09:57:33.663Z,13.25
2023-04-09T09:58:33.690Z,13.26
2023-04-09T09:59:34.084Z,13.22
2023-04-09T10:00:33.607Z,13.26
2023-04-09T10:01:41.390Z,13.29
2023-04-09T10:02:41.689Z,13.44
2023-04-09T10:03:40.599Z,13.55
2023-04-09T10:04:41.934Z,13.60
2023-04-09T10:05:40.603Z,13.66
2023-04-09T10:06:33.529Z,13.70
2023-04-09T10:07:33.519Z,13.73
2023-04-09T10:08:33.781Z,13.79
2023-04-09T10:09:33.529Z,13.85
2023-04-09T10:10:33.783Z,13.85
2023-04-09T10:11:33.506Z,13.87
2023-04-09T10:12:33.468Z,13.92
2023-04-09T10:13:33.475Z,14.00
2023-04-09T10:14:33.450Z,13.95
2023-04-09T10:15:33.460Z,13.96
2023-04-09T10:16:33.412Z,14.06
2023-04-09T10:17:33.464Z,14.17
2023-04-09T10:18:33.534Z,14.29
2023-04-09T10:19:33.408Z,14.32
2023-04-09T10:20:33.385Z,14.36
2023-04-09T10:21:33.377Z,14.37
2023-04-09T10:22:33.348Z,14.39
2023-04-09T10:23:33.354Z,14.43
2023-04-09T10:24:33.367Z,14.57
2023-04-09T10:25:33.339Z,14.58
2023-04-09T10:26:33.305Z,14.51
2023-04-09T10:27:33.328Z,14.43
2023-04-09T10:28:33.287Z,14.42
2023-04-09T10:29:33.282Z,14.29
2023-04-09T10:30:33.283Z,14.15
2023-04-09T10:31:33.304Z,14.06
2023-04-09T10:32:33.279Z,14.07
2023-04-09T10:33:33.309Z,14.10
2023-04-09T10:34:33.213Z,14.15
2023-04-09T10:35:33.220Z,14.18
2023-04-09T10:36:33.206Z,14.25
2023-04-09T10:37:33.177Z,14.21
2023-04-09T10:38:33.165Z,14.12
2023-04-09T10:39:33.186Z,14.15
2023-04-09T10:40:33.162Z,14.22
2023-04-09T10:41:33.146Z,14.28
2023-04-09T10:42:33.160Z,14.36
2023-04-09T10:43:33.114Z,14.42
2023-04-09T10:44:33.164Z,14.47
2023-04-09T10:45:33.162Z,14.58
2023-04-09T10:46:33.134Z,14.69
2023-04-09T10:47:33.166Z,14.69
2023-04-09T10:48:33.092Z,14.81
2023-04-09T10:49:33.220Z,14.86
2023-04-09T10:50:33.025Z,14.83
2023-04-09T10:51:33.022Z,14.84
2023-04-09T10:52:33.033Z,14.88
2023-04-09T10:53:33.023Z,14.99
2023-04-09T10:54:33.043Z,14.95
2023-04-09T10:55:32.993Z,14.86
2023-04-09T10:56:32.971Z,14.89
2023-04-09T10:57:32.955Z,14.95
2023-04-09T10:58:32.960Z,14.98
2023-04-09T10:59:32.967Z,15.10
2023-04-09T11:00:32.912Z,15.09
2023-04-09T11:01:33.013Z,15.02
2023-04-09T11:02:33.014Z,14.99
2023-04-09T11:03:32.903Z,15.07
2023-04-09T11:04:33.324Z,14.99
2023-04-09T11:05:32.897Z,14.91
2023-04-09T11:06:32.885Z,14.86
2023-04-09T11:07:32.899Z,14.83
2023-04-09T11:08:32.888Z,14.80
2023-04-09T11:09:32.911Z,14.81
2023-04-09T11:10:32.856Z,14.83
2023-04-09T11:11:33.596Z,14.81
2023-04-09T11:12:32.849Z,14.94
2023-04-09T11:13:32.862Z,14.96
2023-04-09T11:14:32.890Z,15.11
2023-04-09T11:15:33.235Z,15.27
2023-04-09T11:16:32.912Z,15.31
2023-04-09T11:17:33.109Z,15.36
2023-04-09T11:18:33.113Z,15.41
2023-04-09T11:19:32.836Z,15.47
2023-04-09T11:20:32.715Z,15.60
2023-04-09T11:21:32.673Z,15.68
2023-04-09T11:22:32.677Z,15.67
2023-04-09T11:23:32.708Z,15.67
2023-04-09T11:24:32.659Z,15.65
2023-04-09T11:25:32.644Z,15.53
2023-04-09T11:26:32.625Z,15.41
2023-04-09T11:27:32.604Z,15.34
2023-04-09T11:28:32.615Z,15.35
2023-04-09T11:29:32.623Z,15.27
2023-04-09T11:30:32.589Z,15.27
2023-04-09T11:31:32.614Z,15.35
2023-04-09T11:32:32.579Z,15.36
2023-04-09T11:33:32.579Z,15.57
2023-04-09T11:34:32.554Z,15.80
2023-04-09T11:35:32.547Z,16.04
2023-04-09T11:36:32.521Z,16.27
2023-04-09T11:37:32.512Z,16.46
2023-04-09T11:38:32.517Z,16.53
2023-04-09T11:39:32.493Z,16.57
2023-04-09T11:40:32.495Z,16.45
2023-04-09T11:41:32.494Z,16.39
2023-04-09T11:42:32.462Z,16.27
2023-04-09T11:43:32.509Z,16.04
2023-04-09T11:44:32.456Z,16.04
2023-04-09T11:45:39.542Z,16.08
2023-04-09T11:46:32.410Z,16.05
2023-04-09T11:47:32.404Z,15.94
2023-04-09T11:48:39.421Z,15.92
2023-04-09T11:49:32.372Z,15.93
2023-04-09T11:50:32.377Z,16.01
2023-04-09T11:51:32.372Z,16.08
2023-04-09T11:52:32.337Z,16.09
2023-04-09T11:53:32.368Z,16.21
2023-04-09T11:54:32.332Z,16.20
2023-04-09T11:55:32.326Z,16.09
2023-04-09T11:56:32.309Z,15.96
2023-04-09T11:57:32.334Z,15.96
2023-04-09T11:58:32.276Z,16.00
2023-04-09T11:59:32.290Z,16.05
2023-04-09T12:00:32.251Z,16.14
2023-04-09T12:01:32.339Z,16.34
2023-04-09T12:02:32.412Z,16.45
2023-04-09T12:03:33.039Z,16.48
2023-04-09T12:04:32.316Z,16.58
2023-04-09T12:05:32.229Z,16.70
2023-04-09T12:06:32.183Z,16.79
2023-04-09T12:07:32.194Z,16.81
2023-04-09T12:08:32.180Z,16.71
2023-04-09T12:09:32.174Z,16.63
2023-04-09T12:10:32.149Z,16.30
2023-04-09T12:11:32.136Z,16.20
2023-04-09T12:12:32.121Z,16.28
2023-04-09T12:13:32.120Z,16.41
2023-04-09T12:14:32.109Z,16.49
2023-04-09T12:15:32.088Z,16.56
2023-04-09T12:16:32.101Z,16.57
2023-04-09T12:17:32.114Z,16.61
2023-04-09T12:18:32.055Z,16.70
2023-04-09T12:19:32.035Z,16.60
2023-04-09T12:20:32.020Z,16.67
2023-04-09T12:21:32.015Z,16.78
2023-04-09T12:22:32.003Z,16.89
2023-04-09T12:23:32.008Z,16.91
2023-04-09T12:24:31.963Z,16.81
2023-04-09T12:25:31.968Z,16.61
2023-04-09T12:26:31.947Z,16.52
2023-04-09T12:27:33.867Z,16.49
2023-04-09T12:28:31.954Z,16.58
2023-04-09T12:29:31.922Z,16.60
2023-04-09T12:30:31.973Z,16.61
2023-04-09T12:31:31.966Z,16.67
2023-04-09T12:32:31.902Z,16.79
2023-04-09T12:33:31.908Z,16.89
2023-04-09T12:34:31.877Z,16.93
2023-04-09T12:35:31.969Z,17.01
2023-04-09T12:36:31.833Z,17.14
2023-04-09T12:37:31.829Z,17.18
2023-04-09T12:38:31.840Z,17.22
2023-04-09T12:39:33.840Z,17.15
2023-04-09T12:40:31.816Z,17.04
2023-04-09T12:41:31.778Z,16.94
2023-04-09T12:42:31.765Z,16.67
2023-04-09T12:43:31.772Z,16.42
2023-04-09T12:44:31.773Z,16.49
2023-04-09T12:45:31.732Z,16.53
2023-04-09T12:46:31.750Z,16.60
2023-04-09T12:47:32.032Z,16.46
2023-04-09T12:48:31.718Z,16.24
2023-04-09T12:49:31.682Z,16.25
2023-04-09T12:50:31.691Z,16.25
2023-04-09T12:51:31.658Z,16.34
2023-04-09T12:52:31.671Z,16.34
2023-04-09T12:53:31.674Z,16.28
2023-04-09T12:54:31.649Z,16.20
2023-04-09T12:55:31.637Z,16.15
2023-04-09T12:56:31.644Z,16.17
2023-04-09T12:57:31.601Z,16.12
2023-04-09T12:58:31.650Z,16.04
2023-04-09T12:59:31.584Z,15.97
2023-04-09T13:00:31.577Z,15.92
2023-04-09T13:01:31.592Z,15.92
2023-04-09T13:02:31.654Z,15.93
2023-04-09T13:03:31.718Z,15.90
2023-04-09T13:04:31.709Z,15.92
2023-04-09T13:05:31.582Z,16.02
2023-04-09T13:06:31.505Z,16.12
2023-04-09T13:07:31.500Z,16.20
2023-04-09T13:08:31.521Z,16.24
2023-04-09T13:09:31.487Z,16.39